KYKM/YKM METAR and TAF weather

Enter ICAO airport designator
Station Type Date Time Source
KYKM METAR 2019/10/23 13:53 UTC NOAA

KYKM 231353Z 26007KT 10SM CLR 04/M01 A3043 RMK AO2 SLP308 T00391006


Station Type Date Time Source
KYKM Decoded METAR 2019/10/23 13:53 UTC NOAA

YAKIMA AIR TERMINAL, WA, United States (KYKM) 46-34N 120-32W 324M
Oct 23, 2019 - 09:53 AM EDT / 2019.10.23 1353 UTC
Wind: from the W (260 degrees) at 8 MPH (7 KT):0
Visibility: 10 mile(s):0
Sky conditions: clear
Temperature: 39.0 F (3.9 C)
Dew Point: 30.9 F (-0.6 C)
Relative Humidity: 72%
Pressure (altimeter): 30.43 in. Hg (1030 hPa)
ob: KYKM 231353Z 26007KT 10SM CLR 04/M01 A3043 RMK AO2 SLP308 T00391006
cycle: 14

Station Type Date Time Source
KYKM TAF 2019/10/23 12:22 UTC NOAA

TAF KYKM 231120Z 2312/2412 28005KT P6SM SCT250
FM231700 VRB03KT P6SM FEW150 SCT250
FM240200 28004KT P6SM SCT250

Example: see airport list